createdAt,value
2023-10-29T14:23:31.839Z,15.36
2023-10-29T14:25:59.558Z,15.36
2023-10-29T14:28:27.279Z,15.39
2023-10-29T14:30:55.144Z,15.43
2023-10-29T14:33:23.258Z,15.41
2023-10-29T14:35:57.825Z,15.39
2023-10-29T14:38:25.591Z,15.39
2023-10-29T14:40:55.933Z,15.40
2023-10-29T14:43:24.240Z,15.41
2023-10-29T14:45:52.670Z,15.43
2023-10-29T14:48:20.906Z,15.43
2023-10-29T14:50:49.198Z,15.43
2023-10-29T14:53:17.182Z,15.41
2023-10-29T14:55:48.580Z,15.36
2023-10-29T14:58:17.916Z,15.35
2023-10-29T15:00:46.355Z,15.33
2023-10-29T15:03:14.730Z,15.26
2023-10-29T15:05:42.747Z,15.23
2023-10-29T15:08:10.444Z,15.24
2023-10-29T15:10:38.233Z,15.25
2023-10-29T15:13:05.932Z,15.25
2023-10-29T15:15:35.069Z,15.25
2023-10-29T15:18:02.958Z,15.21
2023-10-29T15:20:31.406Z,15.21
2023-10-29T15:23:02.270Z,15.17
2023-10-29T15:25:31.012Z,15.17
2023-10-29T15:27:58.694Z,15.13
2023-10-29T15:30:26.936Z,15.10
2023-10-29T15:32:56.164Z,15.09
2023-10-29T15:35:23.919Z,15.09
2023-10-29T15:37:51.578Z,15.05
2023-10-29T15:40:19.382Z,15.02
2023-10-29T15:42:47.046Z,14.98
2023-10-29T15:45:15.035Z,14.95
2023-10-29T15:47:42.930Z,14.93
2023-10-29T15:50:13.726Z,14.88
2023-10-29T15:52:41.548Z,14.86
2023-10-29T15:55:10.197Z,14.89
2023-10-29T15:57:37.943Z,14.86
2023-10-29T16:00:08.947Z,14.88
2023-10-29T16:02:36.864Z,14.88
2023-10-29T16:05:04.957Z,14.87
2023-10-29T16:08:07.088Z,14.88
2023-10-29T16:51:31.407Z,14.26
2023-10-29T16:54:17.751Z,14.33
2023-10-29T16:56:45.612Z,14.38
2023-10-29T16:59:13.816Z,14.42
2023-10-29T17:01:41.570Z,14.44
2023-10-29T17:04:09.623Z,14.47
2023-10-29T17:06:37.395Z,14.50
2023-10-29T17:09:05.434Z,14.50
2023-10-29T17:11:34.930Z,14.51
2023-10-29T17:14:03.790Z,14.52
2023-10-29T17:16:31.446Z,14.50
2023-10-29T17:18:59.234Z,14.57
2023-10-29T17:21:27.111Z,14.57
2023-10-29T17:23:55.025Z,14.55
2023-10-29T17:26:23.010Z,14.54
2023-10-29T17:28:52.944Z,14.53
2023-10-29T17:31:21.027Z,14.56
2023-10-29T17:33:48.946Z,14.56
2023-10-29T17:36:18.146Z,14.54
2023-10-29T17:38:46.608Z,14.55
2023-10-29T17:41:15.757Z,14.60
2023-10-29T17:43:43.521Z,14.63
2023-10-29T17:46:17.187Z,14.58
2023-10-29T17:48:45.403Z,14.61
2023-10-29T17:51:13.257Z,14.61
2023-10-29T17:53:45.414Z,14.62
2023-10-29T17:56:13.338Z,14.60
2023-10-29T17:58:41.855Z,14.60
2023-10-29T18:01:09.793Z,14.61
2023-10-29T18:03:39.052Z,14.61
2023-10-29T18:06:16.363Z,14.59
2023-10-29T18:08:44.867Z,14.54
2023-10-29T18:11:13.960Z,14.53
2023-10-29T18:13:42.220Z,14.54
2023-10-29T18:16:10.281Z,14.53
2023-10-29T18:18:39.877Z,14.52
2023-10-29T18:21:07.923Z,14.50
2023-10-29T18:23:35.709Z,14.48
2023-10-29T18:26:03.569Z,14.46
2023-10-29T18:28:31.877Z,14.46
2023-10-29T18:30:59.669Z,14.49
2023-10-29T18:33:32.487Z,14.49
2023-10-29T18:36:08.227Z,14.51
2023-10-29T18:38:36.010Z,14.52
2023-10-29T18:41:03.939Z,14.51
2023-10-29T18:43:31.613Z,14.53
2023-10-29T18:45:59.373Z,14.56
2023-10-29T18:48:27.172Z,14.59
2023-10-29T18:51:02.679Z,14.57
2023-10-29T18:53:32.120Z,14.59
2023-10-29T18:55:59.810Z,14.63
2023-10-29T18:58:28.051Z,14.62
2023-10-29T19:00:55.833Z,14.65
2023-10-29T19:03:24.184Z,14.65
2023-10-29T19:05:52.264Z,14.67
2023-10-29T19:08:19.956Z,14.65
2023-10-29T19:10:49.409Z,14.68
2023-10-29T19:13:17.237Z,14.66
2023-10-29T19:15:44.893Z,14.66
2023-10-29T19:18:12.840Z,14.64
2023-10-29T19:20:43.129Z,14.63
2023-10-29T19:23:10.920Z,14.64
2023-10-29T19:25:38.732Z,14.66
2023-10-29T19:28:07.829Z,14.68
2023-10-29T19:30:35.620Z,14.68
2023-10-29T19:33:03.470Z,14.66
2023-10-29T19:35:32.969Z,14.61
2023-10-29T19:38:01.785Z,14.56
2023-10-29T19:40:29.817Z,14.51
2023-10-29T19:42:57.770Z,14.44
2023-10-29T19:45:27.320Z,14.41
2023-10-29T19:47:55.261Z,14.37
2023-10-29T19:50:23.154Z,14.35
2023-10-29T19:52:50.891Z,14.32
2023-10-29T19:55:19.622Z,14.24
2023-10-29T19:57:49.189Z,14.22
2023-10-29T20:00:19.620Z,14.22
2023-10-29T20:02:48.950Z,14.21
2023-10-29T20:05:16.852Z,14.17
2023-10-29T20:07:44.658Z,14.13
2023-10-29T20:10:13.331Z,14.13
2023-10-29T20:12:41.363Z,14.12
2023-10-29T20:15:10.881Z,14.08
2023-10-29T20:17:38.598Z,14.06
2023-10-29T20:20:12.260Z,14.05
2023-10-29T20:22:40.225Z,14.01
2023-10-29T20:25:08.438Z,14.00
2023-10-29T20:27:37.330Z,14.02
2023-10-29T20:30:05.841Z,14.02
2023-10-29T20:32:34.072Z,14.02
2023-10-29T20:35:02.132Z,13.99
2023-10-29T20:37:31.640Z,13.96
2023-10-29T20:39:59.662Z,13.91
2023-10-29T20:42:27.495Z,13.93
2023-10-29T20:44:55.844Z,13.95
2023-10-29T20:47:23.662Z,13.94
2023-10-29T20:49:51.475Z,13.94
2023-10-29T20:52:19.793Z,13.90
2023-10-29T20:54:48.934Z,13.90
2023-10-29T20:57:16.761Z,13.90
2023-10-29T20:59:44.539Z,13.91
2023-10-29T21:02:12.248Z,13.89
2023-10-29T21:04:40.025Z,13.89
2023-10-29T21:07:07.719Z,13.89
2023-10-29T21:09:35.598Z,13.90
2023-10-29T21:12:05.315Z,13.89
2023-10-29T21:14:33.070Z,13.86
2023-10-29T21:17:00.750Z,13.84
2023-10-29T21:19:30.720Z,13.84
2023-10-29T21:21:58.599Z,13.85
2023-10-29T21:24:26.328Z,13.84
2023-10-29T21:26:56.263Z,13.86
2023-10-29T21:29:25.532Z,13.85
2023-10-29T21:31:53.361Z,13.84
2023-10-29T21:34:21.193Z,13.86
2023-10-29T21:36:48.919Z,13.82
2023-10-29T21:39:16.914Z,13.76
2023-10-29T21:41:44.672Z,13.76
2023-10-29T21:44:12.383Z,13.70
2023-10-29T21:46:41.552Z,13.68
2023-10-29T21:49:09.410Z,13.67
2023-10-29T21:51:37.139Z,13.65
2023-10-29T21:54:05.274Z,13.64
2023-10-29T21:56:33.212Z,13.59
2023-10-29T21:59:00.907Z,13.62
2023-10-29T22:01:28.704Z,13.61
2023-10-29T22:03:59.146Z,13.60
2023-10-29T22:06:27.217Z,13.59
2023-10-29T22:08:54.974Z,13.59
2023-10-29T22:11:23.207Z,13.59
2023-10-29T22:13:51.413Z,13.59
2023-10-29T22:16:19.916Z,13.64
2023-10-29T22:18:47.790Z,13.65
2023-10-29T22:21:17.677Z,13.66
2023-10-29T22:23:45.431Z,13.66
2023-10-29T22:26:13.156Z,13.64
2023-10-29T22:28:40.863Z,13.58
2023-10-29T22:31:08.640Z,13.58
2023-10-29T22:33:36.366Z,13.55
2023-10-29T22:36:05.867Z,13.55
2023-10-29T22:38:34.992Z,13.50
2023-10-29T22:41:03.907Z,13.54
2023-10-29T22:43:32.166Z,13.53
2023-10-29T22:46:00.012Z,13.46
2023-10-29T22:48:28.222Z,13.44
2023-10-29T22:50:56.311Z,13.40
2023-10-29T22:53:24.602Z,13.36
2023-10-29T22:55:53.805Z,13.36
2023-10-29T22:58:21.471Z,13.33
2023-10-29T23:00:49.315Z,13.31
2023-10-29T23:03:17.385Z,13.24
2023-10-29T23:05:45.104Z,13.23
2023-10-29T23:08:12.905Z,13.20
2023-10-29T23:10:40.609Z,13.16
2023-10-29T23:13:10.015Z,13.13
2023-10-29T23:15:38.596Z,13.11
2023-10-29T23:18:06.871Z,13.13
2023-10-29T23:20:34.724Z,13.15
2023-10-29T23:23:04.267Z,13.12
2023-10-29T23:25:32.014Z,13.13
2023-10-29T23:27:59.756Z,13.13
2023-10-29T23:30:28.853Z,13.14
2023-10-29T23:32:56.590Z,13.17
2023-10-29T23:35:24.363Z,13.14
2023-10-29T23:37:52.187Z,13.13
2023-10-29T23:40:19.907Z,13.14
2023-10-29T23:42:47.614Z,13.14
2023-10-29T23:45:15.410Z,13.14
2023-10-29T23:47:44.985Z,13.16
2023-10-29T23:50:12.768Z,13.17
2023-10-29T23:52:40.914Z,13.17
2023-10-29T23:55:09.550Z,13.20
2023-10-29T23:57:37.376Z,13.18
